createdAt,value
2023-05-15T00:01:48.931Z,3.97
2023-05-15T00:04:51.052Z,3.67
2023-05-15T00:07:53.034Z,3.83
2023-05-15T00:11:01.386Z,3.40
2023-05-15T00:14:04.067Z,3.65
2023-05-15T00:17:06.297Z,3.47
2023-05-15T00:20:10.062Z,3.45
2023-05-15T00:23:12.004Z,3.58
2023-05-15T00:26:15.759Z,4.30
2023-05-15T00:29:17.726Z,3.25
2023-05-15T00:32:20.304Z,4.35
2023-05-15T00:35:22.266Z,2.85
2023-05-15T00:38:25.994Z,3.75
2023-05-15T00:41:32.084Z,3.23
2023-05-15T00:44:34.655Z,3.50
2023-05-15T00:47:38.269Z,3.00
2023-05-15T00:50:41.630Z,3.40
2023-05-15T00:53:44.621Z,3.97
2023-05-15T00:56:48.423Z,3.23
2023-05-15T00:59:53.183Z,3.83
2023-05-15T01:02:55.331Z,3.67
2023-05-15T01:05:57.412Z,3.03
2023-05-15T01:09:04.570Z,3.78
2023-05-15T01:12:08.072Z,4.40
2023-05-15T01:15:10.850Z,3.65
2023-05-15T01:18:12.862Z,3.47
2023-05-15T01:21:27.475Z,3.42
2023-05-15T01:24:43.540Z,3.05
2023-05-15T01:27:51.092Z,3.67
2023-05-15T01:30:56.173Z,3.53
2023-05-15T01:34:03.321Z,3.08
2023-05-15T01:37:09.648Z,3.20
2023-05-15T01:40:15.160Z,3.90
2023-05-15T01:43:21.990Z,3.57
2023-05-15T01:46:27.485Z,3.45
2023-05-15T01:49:31.992Z,3.53
2023-05-15T01:52:40.885Z,3.60
2023-05-15T01:55:43.629Z,3.72
2023-05-15T01:58:48.282Z,3.40
2023-05-15T02:01:51.764Z,3.33
2023-05-15T02:04:54.456Z,3.45
2023-05-15T02:07:56.817Z,4.13
2023-05-15T02:11:03.052Z,3.92
2023-05-15T02:14:05.367Z,3.60
2023-05-15T02:17:07.577Z,4.05
2023-05-15T02:20:10.201Z,3.70
2023-05-15T02:23:13.169Z,3.72
2023-05-15T02:26:36.181Z,3.97
2023-05-15T02:29:56.784Z,3.87
2023-05-15T02:33:25.305Z,3.03
2023-05-15T02:36:32.799Z,3.70
2023-05-15T02:39:35.079Z,4.13
2023-05-15T02:42:38.252Z,3.45
2023-05-15T02:45:41.464Z,3.20
2023-05-15T02:48:44.160Z,4.30
2023-05-15T02:51:48.264Z,4.22
2023-05-15T02:54:50.182Z,4.35
2023-05-15T02:57:52.176Z,4.75
2023-05-15T03:00:54.157Z,4.60
2023-05-15T03:03:56.938Z,4.45
2023-05-15T03:06:58.901Z,4.40
2023-05-15T03:10:00.858Z,4.68
2023-05-15T03:13:02.961Z,4.82
2023-05-15T03:16:05.323Z,3.83
2023-05-15T03:19:07.388Z,4.28
2023-05-15T03:22:09.754Z,4.82
2023-05-15T03:25:12.082Z,4.72
2023-05-15T03:28:14.025Z,4.90
2023-05-15T03:31:16.401Z,4.37
2023-05-15T03:34:18.384Z,4.63
2023-05-15T03:37:20.320Z,4.45
2023-05-15T03:40:24.136Z,4.97
2023-05-15T03:43:26.030Z,5.20
2023-05-15T03:46:28.105Z,5.10
2023-05-15T03:49:30.078Z,5.25
2023-05-15T03:52:32.039Z,5.45
2023-05-15T03:55:35.727Z,4.50
2023-05-15T03:58:37.670Z,5.40
2023-05-15T04:01:51.067Z,6.70
2023-05-15T04:05:01.501Z,6.20
2023-05-15T04:08:04.952Z,5.47
2023-05-15T04:11:07.182Z,6.05
2023-05-15T04:14:09.220Z,6.03
2023-05-15T04:17:11.225Z,5.73
2023-05-15T04:20:15.434Z,6.15
2023-05-15T04:23:17.380Z,6.40
2023-05-15T04:26:19.288Z,6.13
2023-05-15T04:29:21.285Z,6.57
2023-05-15T04:32:23.317Z,5.40
2023-05-15T04:35:25.577Z,5.82
2023-05-15T04:38:27.639Z,6.85
2023-05-15T04:41:30.287Z,5.88
2023-05-15T04:44:33.648Z,6.18
2023-05-15T04:47:36.165Z,5.83
2023-05-15T04:50:38.150Z,6.30
2023-05-15T04:53:40.078Z,5.40
2023-05-15T04:56:41.946Z,5.78
2023-05-15T04:59:43.944Z,5.82
2023-05-15T05:02:45.975Z,5.23
2023-05-15T05:05:47.969Z,5.57
2023-05-15T05:08:49.949Z,5.45
2023-05-15T05:11:51.905Z,6.07
2023-05-15T05:14:55.412Z,6.53
2023-05-15T05:17:57.406Z,6.07
2023-05-15T05:21:03.834Z,6.78
2023-05-15T05:24:05.965Z,6.03
2023-05-15T05:27:08.021Z,7.15
2023-05-15T05:30:10.560Z,6.38
2023-05-15T05:33:13.041Z,6.37
2023-05-15T05:36:15.361Z,6.82
2023-05-15T05:39:19.230Z,6.55
2023-05-15T05:42:22.421Z,6.22
2023-05-15T05:45:24.453Z,6.85
2023-05-15T05:48:26.804Z,6.90
2023-05-15T05:51:28.804Z,9.65
2023-05-15T05:54:30.822Z,8.43
2023-05-15T05:57:32.901Z,8.02
2023-05-15T06:00:34.886Z,7.25
2023-05-15T06:03:38.434Z,7.20
2023-05-15T06:06:41.299Z,7.82
2023-05-15T06:09:43.475Z,6.90
2023-05-15T06:12:46.007Z,8.55
2023-05-15T06:15:48.067Z,7.07
2023-05-15T06:18:49.975Z,8.27
2023-05-15T06:21:52.693Z,8.35
2023-05-15T06:24:54.718Z,8.93
2023-05-15T06:27:56.708Z,8.80
2023-05-15T06:30:58.803Z,9.52
2023-05-15T06:34:00.907Z,8.57
2023-05-15T06:37:03.959Z,9.18
2023-05-15T06:40:06.864Z,7.82
2023-05-15T06:43:09.628Z,8.20
2023-05-15T06:46:12.168Z,8.05
2023-05-15T06:49:14.324Z,7.90
2023-05-15T06:52:16.391Z,7.13
2023-05-15T06:55:19.626Z,7.90
2023-05-15T06:58:23.543Z,7.55
2023-05-15T07:01:25.796Z,7.40
2023-05-15T07:04:30.811Z,7.40
2023-05-15T07:07:33.532Z,8.30
2023-05-15T07:10:36.574Z,8.15
2023-05-15T07:13:39.164Z,7.85
2023-05-15T07:16:41.399Z,6.93
2023-05-15T07:19:43.615Z,6.60
2023-05-15T07:22:55.536Z,6.85
2023-05-15T07:25:58.560Z,6.80
2023-05-15T07:29:00.541Z,6.18
2023-05-15T07:32:03.654Z,5.53
2023-05-15T07:35:06.492Z,6.43
2023-05-15T07:38:09.599Z,5.65
2023-05-15T07:41:12.111Z,9.20
2023-05-15T07:44:14.117Z,7.72
2023-05-15T07:47:16.048Z,6.88
2023-05-15T07:50:18.874Z,6.13
2023-05-15T07:53:21.807Z,6.50
2023-05-15T07:56:23.756Z,6.45
2023-05-15T07:59:27.496Z,6.70
2023-05-15T08:02:29.701Z,6.55
2023-05-15T08:05:31.848Z,5.23
2023-05-15T08:08:34.245Z,6.07
2023-05-15T08:11:36.334Z,5.47
2023-05-15T08:14:38.376Z,6.15
2023-05-15T08:17:40.978Z,5.90
2023-05-15T08:20:44.145Z,5.50
2023-05-15T08:23:46.141Z,5.88
2023-05-15T08:26:48.077Z,5.95
2023-05-15T08:29:50.253Z,5.60
2023-05-15T08:32:52.302Z,5.82
2023-05-15T08:35:54.365Z,6.10
2023-05-15T08:38:56.594Z,5.78
2023-05-15T08:42:10.817Z,5.40
2023-05-15T08:45:13.882Z,5.35
2023-05-15T08:48:21.310Z,5.35
2023-05-15T08:51:24.319Z,5.40
2023-05-15T08:54:26.956Z,5.57
2023-05-15T08:57:29.756Z,5.07
2023-05-15T09:00:31.801Z,5.80
2023-05-15T09:03:33.843Z,5.97
2023-05-15T09:06:36.532Z,5.07
2023-05-15T09:09:39.537Z,4.95
2023-05-15T09:12:44.446Z,5.20
2023-05-15T09:15:49.522Z,5.03
2023-05-15T09:18:52.691Z,5.60
2023-05-15T09:21:54.760Z,5.50
2023-05-15T09:24:58.200Z,5.05
2023-05-15T09:28:01.155Z,5.20
2023-05-15T09:31:05.299Z,5.10
2023-05-15T09:34:09.486Z,4.95
2023-05-15T09:37:28.927Z,4.90
2023-05-15T09:40:32.206Z,5.60
2023-05-15T09:43:36.584Z,5.05
2023-05-15T09:46:39.327Z,4.30
2023-05-15T09:49:44.865Z,3.70
2023-05-15T09:52:46.876Z,3.83
2023-05-15T09:55:49.915Z,3.30
2023-05-15T09:58:56.471Z,3.35
2023-05-15T10:01:58.447Z,3.58
2023-05-15T10:05:01.096Z,3.35
2023-05-15T10:08:04.140Z,3.27
2023-05-15T10:11:07.132Z,3.33
2023-05-15T10:14:11.347Z,3.30
2023-05-15T10:17:14.312Z,3.45
2023-05-15T10:20:22.101Z,3.20
2023-05-15T10:23:24.813Z,2.70
2023-05-15T10:26:36.978Z,3.25
2023-05-15T10:29:39.666Z,3.42
2023-05-15T10:32:42.633Z,3.05
2023-05-15T10:35:46.259Z,2.72
2023-05-15T10:38:49.588Z,2.97
2023-05-15T10:41:51.720Z,2.80
2023-05-15T10:44:59.961Z,3.35
2023-05-15T10:48:04.433Z,3.55
2023-05-15T10:51:15.538Z,3.60
2023-05-15T10:54:17.409Z,3.93
2023-05-15T10:57:21.972Z,3.33
2023-05-15T11:00:24.175Z,3.17
2023-05-15T11:03:48.593Z,3.80
2023-05-15T11:07:12.866Z,3.42
2023-05-15T11:10:30.045Z,2.97
2023-05-15T11:14:06.234Z,3.30
2023-05-15T11:17:12.543Z,3.67
2023-05-15T11:20:14.697Z,3.65
2023-05-15T11:23:21.814Z,3.10
2023-05-15T11:26:33.439Z,4.53
2023-05-15T11:29:35.537Z,4.65
2023-05-15T11:32:41.375Z,5.68
2023-05-15T11:35:47.728Z,4.32
2023-05-15T11:38:50.929Z,2.75
2023-05-15T11:41:54.000Z,2.30
2023-05-15T11:44:56.906Z,3.00
2023-05-15T11:48:03.939Z,3.13
2023-05-15T11:51:12.903Z,3.13
2023-05-15T11:54:14.956Z,2.70
2023-05-15T11:57:19.564Z,2.53
2023-05-15T12:00:22.056Z,2.75
2023-05-15T12:03:26.184Z,2.28
2023-05-15T12:06:28.177Z,2.05
2023-05-15T12:09:30.138Z,2.17
2023-05-15T12:12:32.217Z,1.90
2023-05-15T12:15:37.789Z,1.75
2023-05-15T12:18:39.809Z,2.20
2023-05-15T12:21:46.536Z,2.10
2023-05-15T12:24:48.496Z,1.83
2023-05-15T12:27:50.897Z,2.00
2023-05-15T12:30:53.472Z,1.70
2023-05-15T12:33:56.398Z,1.70
2023-05-15T12:37:00.047Z,1.50
2023-05-15T12:40:12.772Z,1.25
2023-05-15T12:43:15.068Z,1.60
2023-05-15T12:46:22.718Z,1.50
2023-05-15T12:49:24.888Z,1.88
2023-05-15T12:52:30.953Z,1.52
2023-05-15T12:55:34.897Z,1.65
2023-05-15T12:58:37.364Z,1.50
2023-05-15T13:01:42.228Z,1.40
2023-05-15T13:04:46.871Z,1.80
2023-05-15T13:07:49.133Z,1.52
2023-05-15T13:10:58.925Z,1.58
2023-05-15T13:14:01.079Z,1.63
2023-05-15T13:17:03.441Z,1.80
2023-05-15T13:20:07.269Z,1.63
2023-05-15T13:23:11.839Z,1.58
2023-05-15T13:26:13.863Z,1.63
2023-05-15T13:29:15.844Z,1.60
2023-05-15T13:32:17.875Z,1.30
2023-05-15T13:35:20.144Z,1.55
2023-05-15T13:38:22.158Z,1.48
2023-05-15T13:41:24.153Z,1.60
2023-05-15T13:44:26.070Z,1.80
2023-05-15T13:47:27.998Z,1.67
2023-05-15T13:50:30.174Z,1.70
2023-05-15T13:53:32.196Z,1.50
2023-05-15T13:56:34.215Z,1.90
2023-05-15T13:59:36.379Z,1.60
2023-05-15T14:02:39.545Z,1.52
2023-05-15T14:05:41.576Z,1.45
2023-05-15T14:08:43.569Z,1.38
2023-05-15T14:11:45.649Z,1.70
2023-05-15T14:14:48.228Z,1.60
2023-05-15T14:17:50.689Z,1.60
2023-05-15T14:20:52.684Z,2.28
2023-05-15T14:23:54.634Z,1.52
2023-05-15T14:26:56.613Z,1.50
2023-05-15T14:29:58.627Z,1.90
2023-05-15T14:33:01.879Z,1.38
2023-05-15T14:36:05.047Z,1.35
2023-05-15T14:39:07.640Z,1.08
2023-05-15T14:42:10.807Z,1.10
2023-05-15T14:45:13.144Z,2.33
2023-05-15T14:48:15.724Z,1.75
2023-05-15T14:51:19.682Z,1.63
2023-05-15T14:54:22.141Z,1.80
2023-05-15T14:57:24.221Z,2.20
2023-05-15T15:00:27.844Z,1.97
2023-05-15T15:03:32.531Z,1.48
2023-05-15T15:06:36.026Z,1.20
2023-05-15T15:09:38.336Z,1.80
2023-05-15T15:12:40.694Z,1.35
2023-05-15T15:15:42.886Z,1.33
2023-05-15T15:18:44.916Z,1.90
2023-05-15T15:21:46.989Z,6.30
2023-05-15T15:24:49.020Z,5.35
2023-05-15T15:27:51.089Z,4.95
2023-05-15T15:30:53.072Z,2.53
2023-05-15T15:33:55.425Z,2.53
2023-05-15T15:36:57.495Z,2.22
2023-05-15T15:40:00.609Z,2.45
2023-05-15T15:43:02.620Z,1.50
2023-05-15T15:46:04.636Z,1.83
2023-05-15T15:49:07.650Z,2.17
2023-05-15T15:52:10.116Z,2.88
2023-05-15T15:55:12.047Z,3.20
2023-05-15T15:58:14.789Z,3.28
2023-05-15T16:01:16.921Z,2.40
2023-05-15T16:04:18.911Z,2.55
2023-05-15T16:07:20.854Z,2.50
2023-05-15T16:10:22.789Z,2.88
2023-05-15T16:13:24.712Z,2.40
2023-05-15T16:16:26.823Z,2.90
2023-05-15T16:19:28.923Z,3.42
2023-05-15T16:22:31.293Z,3.15
2023-05-15T16:25:33.364Z,3.17
2023-05-15T16:28:35.669Z,4.13
2023-05-15T16:31:38.418Z,4.40
2023-05-15T16:34:40.596Z,4.40
2023-05-15T16:37:42.580Z,4.25
2023-05-15T16:40:44.802Z,5.25
2023-05-15T16:43:46.768Z,5.28
2023-05-15T16:46:48.846Z,4.73
2023-05-15T16:49:50.901Z,5.45
2023-05-15T16:52:53.034Z,5.90
2023-05-15T16:55:54.940Z,6.45
2023-05-15T16:58:56.870Z,5.72
2023-05-15T17:01:59.391Z,7.17
2023-05-15T17:05:01.456Z,9.07
2023-05-15T17:08:03.616Z,10.40
2023-05-15T17:11:05.659Z,10.13
2023-05-15T17:14:07.813Z,7.53
2023-05-15T17:17:09.828Z,6.83
2023-05-15T17:20:12.314Z,5.85
2023-05-15T17:23:14.402Z,6.90
2023-05-15T17:26:16.507Z,6.57
2023-05-15T17:29:18.529Z,7.47
2023-05-15T17:32:20.853Z,5.07
2023-05-15T17:35:22.881Z,5.65
2023-05-15T17:38:24.924Z,6.85
2023-05-15T17:41:27.126Z,6.72
2023-05-15T17:44:31.022Z,6.80
2023-05-15T17:47:33.136Z,7.27
2023-05-15T17:50:38.093Z,9.65
2023-05-15T17:53:40.209Z,5.88
2023-05-15T17:56:42.401Z,4.70
2023-05-15T17:59:44.474Z,4.38
2023-05-15T18:02:46.657Z,3.87
2023-05-15T18:05:49.449Z,3.65
2023-05-15T18:08:51.835Z,4.20
2023-05-15T18:11:54.206Z,4.97
2023-05-15T18:14:56.639Z,6.00
2023-05-15T18:17:59.464Z,5.80
2023-05-15T18:21:02.154Z,5.82
2023-05-15T18:24:04.910Z,5.32
2023-05-15T18:27:07.296Z,7.05
2023-05-15T18:30:12.600Z,7.68
2023-05-15T18:33:17.349Z,7.87
2023-05-15T18:36:21.889Z,6.75
2023-05-15T18:39:24.792Z,5.88
2023-05-15T18:42:28.595Z,4.93
2023-05-15T18:45:31.179Z,5.47
2023-05-15T18:48:33.641Z,5.77
2023-05-15T18:51:36.126Z,4.22
2023-05-15T18:54:40.192Z,4.53
2023-05-15T18:57:42.578Z,4.15
2023-05-15T19:00:45.536Z,3.53
2023-05-15T19:03:48.088Z,3.27
2023-05-15T19:06:50.882Z,3.60
2023-05-15T19:09:53.315Z,3.28
2023-05-15T19:12:56.414Z,3.15
2023-05-15T19:15:58.897Z,3.40
2023-05-15T19:19:01.372Z,3.23
2023-05-15T19:22:03.907Z,3.55
2023-05-15T19:25:06.893Z,3.92
2023-05-15T19:28:09.593Z,4.15
2023-05-15T19:31:24.119Z,4.25
2023-05-15T19:34:32.998Z,4.00
2023-05-15T19:37:36.384Z,3.60
2023-05-15T19:40:38.791Z,3.20
2023-05-15T19:43:41.159Z,3.40
2023-05-15T19:46:45.110Z,3.90
2023-05-15T19:49:47.502Z,3.90
2023-05-15T19:52:49.857Z,3.97
2023-05-15T19:55:53.028Z,4.15
2023-05-15T19:58:55.562Z,3.85
2023-05-15T20:01:57.778Z,4.38
2023-05-15T20:05:00.000Z,3.57
2023-05-15T20:08:02.413Z,4.60
2023-05-15T20:11:04.847Z,4.13
2023-05-15T20:14:06.976Z,3.95
2023-05-15T20:17:09.238Z,4.03
2023-05-15T20:20:12.168Z,3.50
2023-05-15T20:23:14.206Z,3.88
2023-05-15T20:26:16.106Z,4.35
2023-05-15T20:29:18.007Z,5.15
2023-05-15T20:32:20.308Z,4.32
2023-05-15T20:35:24.008Z,3.93
2023-05-15T20:38:26.125Z,4.22
2023-05-15T20:41:28.255Z,4.93
2023-05-15T20:44:30.238Z,5.35
2023-05-15T20:47:32.477Z,4.40
2023-05-15T20:50:34.643Z,4.27
2023-05-15T20:53:36.586Z,3.70
2023-05-15T20:56:38.564Z,4.15
2023-05-15T20:59:41.040Z,4.85
2023-05-15T21:02:44.151Z,5.35
2023-05-15T21:05:46.348Z,5.87
2023-05-15T21:08:48.261Z,6.28
2023-05-15T21:11:50.140Z,6.57
2023-05-15T21:14:52.059Z,6.25
2023-05-15T21:17:54.063Z,7.43
2023-05-15T21:20:56.297Z,5.77
2023-05-15T21:24:01.174Z,5.30
2023-05-15T21:27:03.241Z,5.18
2023-05-15T21:30:06.094Z,5.30
2023-05-15T21:33:09.659Z,5.07
2023-05-15T21:36:11.794Z,5.13
2023-05-15T21:39:15.307Z,5.22
2023-05-15T21:42:17.225Z,4.10
2023-05-15T21:45:19.272Z,4.35
2023-05-15T21:48:21.192Z,3.83
2023-05-15T21:51:23.097Z,4.27
2023-05-15T21:54:25.077Z,4.28
2023-05-15T21:57:27.053Z,4.75
2023-05-15T22:01:41.338Z,4.22
2023-05-15T22:04:43.434Z,3.97
2023-05-15T22:07:45.658Z,4.40
2023-05-15T22:10:49.035Z,4.20
2023-05-15T22:13:51.099Z,4.55
2023-05-15T22:16:53.163Z,4.15
2023-05-15T22:20:02.631Z,4.97
2023-05-15T22:23:05.316Z,4.43
2023-05-15T22:26:07.252Z,4.68
2023-05-15T22:29:09.276Z,4.47
2023-05-15T22:32:11.227Z,4.32
2023-05-15T22:35:13.593Z,4.72
2023-05-15T22:38:15.785Z,4.27
2023-05-15T22:41:18.130Z,4.68
2023-05-15T22:44:20.175Z,4.78
2023-05-15T22:47:22.151Z,4.50
2023-05-15T22:50:24.530Z,4.60
2023-05-15T22:53:27.099Z,4.20
2023-05-15T22:56:29.220Z,3.55
2023-05-15T22:59:31.230Z,3.45
2023-05-15T23:02:33.544Z,2.90
2023-05-15T23:05:35.608Z,2.95
2023-05-15T23:08:37.579Z,2.50
2023-05-15T23:11:39.622Z,2.53
2023-05-15T23:14:41.591Z,2.28
2023-05-15T23:17:43.617Z,2.53
2023-05-15T23:20:45.963Z,2.15
2023-05-15T23:23:48.109Z,2.10
2023-05-15T23:26:50.109Z,2.25
2023-05-15T23:29:52.052Z,2.20
2023-05-15T23:32:56.545Z,2.33
2023-05-15T23:35:58.464Z,2.13
2023-05-15T23:39:00.386Z,2.07
2023-05-15T23:42:02.401Z,2.60
2023-05-15T23:45:04.745Z,2.33
2023-05-15T23:48:06.853Z,2.13
2023-05-15T23:51:08.968Z,2.47
2023-05-15T23:54:11.633Z,2.20
2023-05-15T23:57:13.659Z,2.60
